createdAt,value
2022-10-18T00:58:52.699Z,13.97
2022-10-18T04:24:43.023Z,14.10
2022-10-18T04:27:31.018Z,14.07
2022-10-18T04:30:00.304Z,13.71
2022-10-18T05:06:12.035Z,13.40
2022-10-18T05:12:18.244Z,13.54
2022-10-18T05:21:05.290Z,14.31
2022-10-18T05:24:39.746Z,14.38
2022-10-18T05:27:21.396Z,14.54
2022-10-18T05:29:49.110Z,14.84
2022-10-18T05:32:17.197Z,14.77
2022-10-18T05:34:45.235Z,14.90
2022-10-18T05:37:13.206Z,15.04
2022-10-18T05:39:41.230Z,15.29
2022-10-18T05:42:10.523Z,15.35
2022-10-18T05:44:38.460Z,15.46
2022-10-18T05:47:06.400Z,15.17
2022-10-18T05:49:34.350Z,15.32
2022-10-18T05:52:02.314Z,15.58
2022-10-18T05:54:30.267Z,15.58
2022-10-18T05:56:58.187Z,15.51
2022-10-18T05:59:27.708Z,15.61
2022-10-18T06:01:55.683Z,15.44
2022-10-18T06:04:23.791Z,15.72
2022-10-18T06:06:51.714Z,15.83
2022-10-18T06:09:19.679Z,15.95
2022-10-18T06:11:47.632Z,16.20
2022-10-18T06:14:15.565Z,16.28
2022-10-18T06:16:44.900Z,16.36
2022-10-18T06:19:12.885Z,16.55
2022-10-18T06:21:40.768Z,16.33
2022-10-18T06:24:08.744Z,16.83
2022-10-18T06:26:36.663Z,16.66
2022-10-18T06:29:04.891Z,16.65
2022-10-18T06:31:32.952Z,16.84
2022-10-18T06:34:02.720Z,16.82
2022-10-18T06:36:30.627Z,16.88
2022-10-18T06:39:00.040Z,16.76
2022-10-18T06:41:27.984Z,16.76
2022-10-18T06:43:57.778Z,17.13
2022-10-18T06:46:27.207Z,16.72
2022-10-18T06:48:55.148Z,16.68
2022-10-18T06:51:24.428Z,17.02
2022-10-18T06:54:12.985Z,17.12
2022-10-18T06:56:40.493Z,17.07
2022-10-18T06:59:08.458Z,17.02
2022-10-18T07:01:36.506Z,17.30
2022-10-18T07:04:04.707Z,17.44
2022-10-18T07:06:34.261Z,17.58
2022-10-18T07:09:03.396Z,17.34
2022-10-18T07:11:31.339Z,17.54
2022-10-18T07:14:03.230Z,17.54
2022-10-18T07:16:31.967Z,17.53
2022-10-18T07:19:00.031Z,17.54
2022-10-18T07:21:28.213Z,17.74
2022-10-18T07:23:58.174Z,17.67
2022-10-18T07:26:29.201Z,17.92
2022-10-18T07:29:00.522Z,18.01
2022-10-18T07:31:29.959Z,18.20
2022-10-18T07:33:58.173Z,18.18
2022-10-18T07:36:26.719Z,17.99
2022-10-18T07:38:55.051Z,17.97
2022-10-18T07:41:24.581Z,18.23
2022-10-18T07:43:53.682Z,18.62
2022-10-18T07:46:23.092Z,18.49
2022-10-18T07:48:51.824Z,18.48
2022-10-18T07:51:21.284Z,18.47
2022-10-18T07:53:49.750Z,18.70
2022-10-18T07:56:21.143Z,18.89
2022-10-18T07:58:52.553Z,18.85
2022-10-18T08:01:21.534Z,18.91
2022-10-18T08:03:49.779Z,18.78
2022-10-18T08:06:19.133Z,18.69
2022-10-18T08:08:47.379Z,18.93
2022-10-18T08:11:17.465Z,18.94
2022-10-18T08:13:45.567Z,18.87
2022-10-18T08:16:16.775Z,18.82
2022-10-18T08:18:45.375Z,18.96
2022-10-18T08:21:15.523Z,19.02
2022-10-18T08:23:44.232Z,18.97
2022-10-18T08:26:14.053Z,19.21
2022-10-18T08:28:46.166Z,19.16
2022-10-18T08:31:23.563Z,19.31
2022-10-18T08:33:51.507Z,19.20
2022-10-18T08:36:20.029Z,19.01
2022-10-18T08:38:49.385Z,19.12
2022-10-18T08:41:45.654Z,19.14
2022-10-18T08:44:19.770Z,19.24
2022-10-18T08:46:51.434Z,19.42
2022-10-18T08:49:28.523Z,19.64
2022-10-18T08:51:58.177Z,19.46
2022-10-18T08:54:33.327Z,19.56
2022-10-18T08:57:03.443Z,19.25
2022-10-18T08:59:40.353Z,19.26
2022-10-18T09:02:21.400Z,19.49
2022-10-18T09:04:58.474Z,19.50
2022-10-18T09:08:00.893Z,19.54
2022-10-18T09:10:38.784Z,19.41
2022-10-18T09:13:21.817Z,19.49
2022-10-18T09:15:55.835Z,19.67
2022-10-18T09:18:37.654Z,19.69
2022-10-18T09:21:18.381Z,19.59
2022-10-18T09:23:49.634Z,19.70
2022-10-18T09:26:19.627Z,19.97
2022-10-18T09:29:06.615Z,20.18
2022-10-18T09:31:45.007Z,20.29
2022-10-18T09:34:24.783Z,20.31
2022-10-18T09:36:53.956Z,20.50
2022-10-18T09:39:26.222Z,20.25
2022-10-18T09:41:58.905Z,20.23
2022-10-18T09:44:30.431Z,20.45
2022-10-18T09:47:02.793Z,20.06
2022-10-18T09:49:38.714Z,19.97
2022-10-18T09:52:13.063Z,20.51
2022-10-18T09:54:44.952Z,20.41
2022-10-18T09:57:17.812Z,20.49
2022-10-18T09:59:48.385Z,20.44
2022-10-18T10:02:18.101Z,20.60
2022-10-18T10:04:47.544Z,20.38
2022-10-18T10:07:18.382Z,20.38
2022-10-18T10:09:49.342Z,19.93
2022-10-18T10:12:29.256Z,19.73
2022-10-18T10:15:09.803Z,19.95
2022-10-18T10:17:38.087Z,20.11
2022-10-18T10:20:19.117Z,20.79
2022-10-18T10:22:48.338Z,20.77
2022-10-18T10:25:34.376Z,20.84
2022-10-18T10:28:05.312Z,21.09
2022-10-18T10:30:35.915Z,20.70
2022-10-18T10:33:04.599Z,20.74
2022-10-18T10:38:26.040Z,20.90
2022-10-18T10:40:55.168Z,20.71
2022-10-18T10:43:42.796Z,20.61
2022-10-18T10:46:13.155Z,21.06
2022-10-18T10:48:48.496Z,21.14
2022-10-18T10:51:29.801Z,21.22
2022-10-18T10:54:03.718Z,21.15
2022-10-18T10:56:34.593Z,20.89
2022-10-18T10:59:11.246Z,21.31
2022-10-18T11:01:39.223Z,21.27
2022-10-18T11:04:26.508Z,21.31
2022-10-18T11:07:17.349Z,21.19
2022-10-18T11:09:55.716Z,21.33
2022-10-18T11:12:34.587Z,21.43
2022-10-18T11:15:20.355Z,21.36
2022-10-18T11:17:57.404Z,21.49
2022-10-18T11:20:30.952Z,21.60
2022-10-18T11:23:01.844Z,21.48
2022-10-18T11:25:46.911Z,21.56
2022-10-18T11:28:23.269Z,21.61
2022-10-18T11:31:06.161Z,21.55
2022-10-18T11:34:08.356Z,21.68
2022-10-18T11:36:50.382Z,21.62
2022-10-18T11:39:37.440Z,21.75
2022-10-18T11:42:14.231Z,21.65
2022-10-18T11:44:50.612Z,21.76
2022-10-18T11:47:26.885Z,21.69
2022-10-18T11:50:08.771Z,21.82
2022-10-18T11:52:47.141Z,21.85
2022-10-18T11:55:33.398Z,21.97
2022-10-18T11:58:13.724Z,21.80
2022-10-18T12:00:52.235Z,22.00
2022-10-18T12:03:39.327Z,21.88
2022-10-18T12:06:13.725Z,21.85
2022-10-18T12:08:45.444Z,22.02
2022-10-18T12:11:19.986Z,22.20
2022-10-18T12:13:51.185Z,22.04
2022-10-18T12:16:38.861Z,22.19
2022-10-18T12:19:22.134Z,22.12
2022-10-18T12:21:53.842Z,21.94
2022-10-18T12:24:26.086Z,22.31
2022-10-18T12:27:00.382Z,22.31
2022-10-18T12:29:34.014Z,22.34
2022-10-18T12:32:07.159Z,22.36
2022-10-18T12:34:40.818Z,22.44
2022-10-18T12:37:26.129Z,22.55
2022-10-18T12:40:09.823Z,22.81
2022-10-18T12:42:45.410Z,22.65
2022-10-18T12:45:33.326Z,22.70
2022-10-18T12:48:03.504Z,22.66
2022-10-18T12:50:36.053Z,22.59
2022-10-18T12:53:16.839Z,22.62
2022-10-18T12:55:46.599Z,22.66
2022-10-18T12:58:31.022Z,22.72
2022-10-18T13:01:02.320Z,22.83
2022-10-18T13:03:55.616Z,22.85
2022-10-18T13:06:24.845Z,22.75
2022-10-18T13:09:18.492Z,22.97
2022-10-18T13:11:46.478Z,22.99
2022-10-18T13:15:05.890Z,23.02
2022-10-18T13:17:48.461Z,23.07
2022-10-18T13:20:27.285Z,23.19
2022-10-18T13:25:58.650Z,22.86
2022-10-18T13:28:36.667Z,23.18
2022-10-18T13:31:20.156Z,23.32
2022-10-18T13:33:48.283Z,23.32
2022-10-18T13:36:24.822Z,23.56
2022-10-18T13:39:06.096Z,23.48
2022-10-18T13:42:14.819Z,23.55
2022-10-18T13:44:45.508Z,23.59
2022-10-18T13:47:17.019Z,23.55
2022-10-18T13:53:18.646Z,23.28
2022-10-18T13:55:59.896Z,23.53
2022-10-18T13:58:48.812Z,23.45
2022-10-18T14:01:40.274Z,23.44
2022-10-18T14:04:39.540Z,23.41
2022-10-18T14:07:10.083Z,23.46
2022-10-18T14:09:48.843Z,23.53
2022-10-18T14:12:27.995Z,23.39
2022-10-18T14:15:01.057Z,23.57
2022-10-18T14:17:36.271Z,23.53
2022-10-18T14:20:17.551Z,23.72
2022-10-18T14:22:49.865Z,23.77
2022-10-18T14:25:24.371Z,23.85
2022-10-18T14:28:11.407Z,23.67
2022-10-18T14:30:53.998Z,23.83
2022-10-18T14:33:27.802Z,23.84
2022-10-18T14:36:09.147Z,23.63
2022-10-18T14:38:48.305Z,23.57
2022-10-18T14:41:18.209Z,23.61
2022-10-18T14:43:46.743Z,23.49
2022-10-18T14:46:27.226Z,23.50
2022-10-18T14:48:59.173Z,23.43
2022-10-18T14:51:31.212Z,23.35
2022-10-18T14:53:59.229Z,23.46
2022-10-18T14:56:30.147Z,23.30
2022-10-18T14:59:03.070Z,23.41
2022-10-18T15:01:33.384Z,23.27
2022-10-18T15:04:11.747Z,23.33
2022-10-18T15:06:45.555Z,23.18
2022-10-18T15:09:15.318Z,23.36
2022-10-18T15:11:45.936Z,22.85
2022-10-18T15:14:17.776Z,23.04
2022-10-18T15:16:46.500Z,22.89
2022-10-18T15:19:30.395Z,22.71
2022-10-18T15:25:10.856Z,22.14
2022-10-18T15:30:11.175Z,22.20
2022-10-18T15:32:40.409Z,22.19
2022-10-18T15:35:13.821Z,22.16
2022-10-18T15:37:45.202Z,22.19
2022-10-18T15:40:45.684Z,22.06
2022-10-18T15:43:36.871Z,22.04
2022-10-18T15:46:07.028Z,21.85
2022-10-18T15:48:38.145Z,21.72
2022-10-18T15:51:07.795Z,21.63
2022-10-18T15:53:52.678Z,21.43
2022-10-18T15:56:32.749Z,21.43
2022-10-18T15:59:04.127Z,21.33
2022-10-18T16:01:43.004Z,21.17
2022-10-18T16:04:24.547Z,21.17
2022-10-18T16:06:52.727Z,21.10
2022-10-18T16:09:23.564Z,21.06
2022-10-18T16:11:56.748Z,20.86
2022-10-18T16:14:26.265Z,20.60
2022-10-18T16:16:56.946Z,20.42
2022-10-18T16:19:25.147Z,20.23
2022-10-18T16:21:54.722Z,20.11
2022-10-18T16:24:24.357Z,19.88
2022-10-18T16:26:53.151Z,19.72
2022-10-18T16:29:25.578Z,19.67
2022-10-18T16:31:55.316Z,19.49
2022-10-18T16:37:40.995Z,18.94
2022-10-18T16:40:31.976Z,18.63
2022-10-18T16:46:22.128Z,18.89
2022-10-18T16:48:51.691Z,18.89
2022-10-18T16:51:19.744Z,18.79
2022-10-18T16:53:48.122Z,18.41
2022-10-18T16:56:19.827Z,18.17
2022-10-18T16:58:48.340Z,18.36
2022-10-18T17:01:18.070Z,18.26
2022-10-18T17:03:46.833Z,18.06
2022-10-18T17:06:16.900Z,18.06
2022-10-18T17:08:45.194Z,17.93
2022-10-18T17:11:14.731Z,17.83
2022-10-18T17:13:44.821Z,17.89
2022-10-18T17:16:23.197Z,17.87
2022-10-18T17:18:51.646Z,17.77
2022-10-18T17:21:19.658Z,17.74
2022-10-18T17:23:47.832Z,17.65
2022-10-18T17:26:28.417Z,17.56
2022-10-18T17:29:01.152Z,17.45
2022-10-18T17:31:30.351Z,17.55
2022-10-18T17:34:01.782Z,17.64
2022-10-18T17:36:30.794Z,17.43
2022-10-18T17:38:59.604Z,17.66
2022-10-18T17:46:55.411Z,17.05
2022-10-18T17:55:11.543Z,17.22
2022-10-18T17:57:41.467Z,16.72
2022-10-18T18:00:15.948Z,16.60
2022-10-18T18:02:51.005Z,17.19
2022-10-18T18:05:46.330Z,16.87
2022-10-18T18:12:42.185Z,16.61
2022-10-18T18:19:20.286Z,16.84
2022-10-18T18:26:05.436Z,16.98
2022-10-18T18:29:26.850Z,16.26
2022-10-18T18:36:05.376Z,16.73
2022-10-18T18:39:56.898Z,16.02
2022-10-18T18:43:22.874Z,15.98
2022-10-18T18:52:26.340Z,15.79
2022-10-18T19:05:44.195Z,16.21
2022-10-18T19:08:12.248Z,16.24
2022-10-18T19:10:40.288Z,16.32
2022-10-18T19:13:08.415Z,16.12
2022-10-18T19:15:38.027Z,16.11
2022-10-18T19:18:06.396Z,16.14
2022-10-18T19:20:34.898Z,16.15
2022-10-18T19:23:03.028Z,15.91
2022-10-18T19:25:31.118Z,16.07
2022-10-18T19:27:59.544Z,16.08
2022-10-18T19:30:28.167Z,15.80
2022-10-18T19:33:04.297Z,15.81
2022-10-18T19:35:40.068Z,15.61
2022-10-18T19:38:08.398Z,15.73
2022-10-18T19:40:36.560Z,15.50
2022-10-18T19:43:04.912Z,15.60
2022-10-18T19:49:17.088Z,15.71
2022-10-18T19:53:39.080Z,15.13
2022-10-18T19:55:11.829Z,14.92
2022-10-18T19:57:40.009Z,15.19
2022-10-18T20:00:10.641Z,15.31
2022-10-18T20:02:39.465Z,15.43
2022-10-18T20:05:09.928Z,15.53
2022-10-18T20:08:03.860Z,15.08
2022-10-18T20:10:32.293Z,15.25
2022-10-18T20:13:00.873Z,14.84
2022-10-18T20:15:31.912Z,15.23
2022-10-18T20:18:00.196Z,15.06
2022-10-18T20:20:29.905Z,15.23
2022-10-18T20:23:00.958Z,14.93
2022-10-18T20:25:29.197Z,14.92
2022-10-18T20:27:57.414Z,14.79
2022-10-18T20:30:34.349Z,14.57
2022-10-18T20:33:02.382Z,14.69
2022-10-18T20:35:34.895Z,14.68
2022-10-18T20:38:06.731Z,14.68
2022-10-18T20:43:33.988Z,14.51
2022-10-18T20:49:02.154Z,14.14
2022-10-18T20:51:46.673Z,14.06
2022-10-18T20:54:15.285Z,14.44
2022-10-18T20:56:59.910Z,13.69
2022-10-18T20:59:28.691Z,14.03
2022-10-18T21:01:56.712Z,14.27
2022-10-18T21:04:24.671Z,14.65
2022-10-18T21:06:53.987Z,14.43
2022-10-18T21:09:22.178Z,14.52
2022-10-18T21:11:53.913Z,14.22
2022-10-18T21:14:24.684Z,14.35
2022-10-18T21:16:55.179Z,14.16
2022-10-18T21:19:25.141Z,14.01
2022-10-18T21:21:56.675Z,14.34
2022-10-18T21:24:26.540Z,14.33
2022-10-18T21:26:54.916Z,13.91
2022-10-18T21:29:24.615Z,13.75
2022-10-18T21:31:55.831Z,13.77
2022-10-18T21:34:23.789Z,13.71
2022-10-18T21:36:52.233Z,13.70
2022-10-18T21:41:52.732Z,13.99
